sensor_id;sensor_type;location;lat;lon;timestamp;temperature;humidity
19242;DHT22;9755;47.790;9.620;2022-12-07T00:00:51;2.80;1.00
19242;DHT22;9755;47.790;9.620;2022-12-07T00:03:20;2.80;1.00
19242;DHT22;9755;47.790;9.620;2022-12-07T00:05:47;2.80;1.00
19242;DHT22;9755;47.790;9.620;2022-12-07T00:08:14;2.80;1.00
19242;DHT22;9755;47.790;9.620;2022-12-07T00:10:41;2.80;1.00
19242;DHT22;9755;47.790;9.620;2022-12-07T00:13:08;2.80;1.00
19242;DHT22;9755;47.790;9.620;2022-12-07T00:15:35;2.70;1.00
19242;DHT22;9755;47.790;9.620;2022-12-07T00:18:02;2.80;1.00
19242;DHT22;9755;47.790;9.620;2022-12-07T00:20:30;2.80;1.00
19242;DHT22;9755;47.790;9.620;2022-12-07T00:22:59;2.80;1.00
19242;DHT22;9755;47.790;9.620;2022-12-07T00:25:26;2.70;1.00
19242;DHT22;9755;47.790;9.620;2022-12-07T00:27:53;2.80;1.00
19242;DHT22;9755;47.790;9.620;2022-12-07T00:30:22;2.70;1.00
19242;DHT22;9755;47.790;9.620;2022-12-07T00:32:49;2.80;1.00
19242;DHT22;9755;47.790;9.620;2022-12-07T00:35:16;2.80;1.00
19242;DHT22;9755;47.790;9.620;2022-12-07T00:37:44;2.70;1.00
19242;DHT22;9755;47.790;9.620;2022-12-07T00:40:12;2.70;1.00
19242;DHT22;9755;47.790;9.620;2022-12-07T00:42:39;2.80;15.00
19242;DHT22;9755;47.790;9.620;2022-12-07T00:45:07;2.80;28.30
19242;DHT22;9755;47.790;9.620;2022-12-07T00:47:34;2.80;44.80
19242;DHT22;9755;47.790;9.620;2022-12-07T00:50:01;2.80;60.50
19242;DHT22;9755;47.790;9.620;2022-12-07T00:52:29;2.80;80.80
19242;DHT22;9755;47.790;9.620;2022-12-07T00:54:57;2.90;87.00
19242;DHT22;9755;47.790;9.620;2022-12-07T00:57:24;2.90;82.70
19242;DHT22;9755;47.790;9.620;2022-12-07T00:59:51;2.80;91.30
19242;DHT22;9755;47.790;9.620;2022-12-07T01:02:21;2.80;95.80
19242;DHT22;9755;47.790;9.620;2022-12-07T01:04:48;2.80;98.10
19242;DHT22;9755;47.790;9.620;2022-12-07T01:07:15;2.80;99.90
19242;DHT22;9755;47.790;9.620;2022-12-07T01:09:42;2.80;99.90
19242;DHT22;9755;47.790;9.620;2022-12-07T01:12:11;2.80;99.90
19242;DHT22;9755;47.790;9.620;2022-12-07T01:14:38;2.90;99.90
19242;DHT22;9755;47.790;9.620;2022-12-07T01:17:05;2.90;99.90
19242;DHT22;9755;47.790;9.620;2022-12-07T01:19:32;2.90;99.90
19242;DHT22;9755;47.790;9.620;2022-12-07T01:21:59;2.90;99.90
19242;DHT22;9755;47.790;9.620;2022-12-07T01:24:26;2.90;99.90
19242;DHT22;9755;47.790;9.620;2022-12-07T01:26:53;2.90;99.90
19242;DHT22;9755;47.790;9.620;2022-12-07T01:29:21;2.80;99.90
19242;DHT22;9755;47.790;9.620;2022-12-07T01:31:49;2.90;99.90
19242;DHT22;9755;47.790;9.620;2022-12-07T01:34:16;2.90;99.90
19242;DHT22;9755;47.790;9.620;2022-12-07T01:36:43;2.90;99.90
19242;DHT22;9755;47.790;9.620;2022-12-07T01:39:10;2.90;99.90
19242;DHT22;9755;47.790;9.620;2022-12-07T01:41:39;2.80;99.90
19242;DHT22;9755;47.790;9.620;2022-12-07T01:44:15;2.80;99.90
19242;DHT22;9755;47.790;9.620;2022-12-07T01:46:44;2.80;99.90
19242;DHT22;9755;47.790;9.620;2022-12-07T01:49:17;2.80;99.90
19242;DHT22;9755;47.790;9.620;2022-12-07T01:51:46;2.80;99.90
19242;DHT22;9755;47.790;9.620;2022-12-07T01:54:15;2.80;99.90
19242;DHT22;9755;47.790;9.620;2022-12-07T01:56:45;2.90;99.90
19242;DHT22;9755;47.790;9.620;2022-12-07T01:59:16;2.90;99.90
19242;DHT22;9755;47.790;9.620;2022-12-07T02:01:45;2.90;99.90
19242;DHT22;9755;47.790;9.620;2022-12-07T02:04:12;2.90;99.90
19242;DHT22;9755;47.790;9.620;2022-12-07T02:06:41;2.90;99.90
19242;DHT22;9755;47.790;9.620;2022-12-07T02:09:09;2.90;99.90
19242;DHT22;9755;47.790;9.620;2022-12-07T02:11:37;2.90;99.90
19242;DHT22;9755;47.790;9.620;2022-12-07T02:14:04;2.90;99.90
19242;DHT22;9755;47.790;9.620;2022-12-07T02:16:37;2.90;99.90
19242;DHT22;9755;47.790;9.620;2022-12-07T02:22:16;2.90;99.90
19242;DHT22;9755;47.790;9.620;2022-12-07T02:24:49;2.90;99.90
19242;DHT22;9755;47.790;9.620;2022-12-07T02:27:37;2.90;99.90
19242;DHT22;9755;47.790;9.620;2022-12-07T02:30:17;2.90;99.90
19242;DHT22;9755;47.790;9.620;2022-12-07T02:32:51;2.80;99.90
19242;DHT22;9755;47.790;9.620;2022-12-07T02:35:24;2.80;99.90
19242;DHT22;9755;47.790;9.620;2022-12-07T02:37:58;2.80;99.90
19242;DHT22;9755;47.790;9.620;2022-12-07T02:40:33;2.80;99.90
19242;DHT22;9755;47.790;9.620;2022-12-07T02:43:06;2.90;99.90
19242;DHT22;9755;47.790;9.620;2022-12-07T02:45:39;2.90;99.90
19242;DHT22;9755;47.790;9.620;2022-12-07T02:48:09;2.90;99.90
19242;DHT22;9755;47.790;9.620;2022-12-07T02:50:36;2.90;99.90
19242;DHT22;9755;47.790;9.620;2022-12-07T02:53:04;2.90;99.90
19242;DHT22;9755;47.790;9.620;2022-12-07T02:55:37;2.80;99.90
19242;DHT22;9755;47.790;9.620;2022-12-07T02:58:21;2.80;99.90
19242;DHT22;9755;47.790;9.620;2022-12-07T03:01:00;2.70;99.90
19242;DHT22;9755;47.790;9.620;2022-12-07T03:03:31;2.70;99.90
19242;DHT22;9755;47.790;9.620;2022-12-07T03:06:07;2.70;99.90
19242;DHT22;9755;47.790;9.620;2022-12-07T03:08:44;2.70;99.90
19242;DHT22;9755;47.790;9.620;2022-12-07T03:11:14;2.70;99.90
19242;DHT22;9755;47.790;9.620;2022-12-07T03:13:48;2.70;99.90
19242;DHT22;9755;47.790;9.620;2022-12-07T03:16:21;2.70;99.90
19242;DHT22;9755;47.790;9.620;2022-12-07T03:18:53;2.70;99.90
19242;DHT22;9755;47.790;9.620;2022-12-07T03:21:24;2.70;99.90
19242;DHT22;9755;47.790;9.620;2022-12-07T03:23:55;2.70;99.90
19242;DHT22;9755;47.790;9.620;2022-12-07T03:26:27;2.60;99.90
19242;DHT22;9755;47.790;9.620;2022-12-07T03:28:59;2.60;99.90
19242;DHT22;9755;47.790;9.620;2022-12-07T03:31:32;2.60;99.90
19242;DHT22;9755;47.790;9.620;2022-12-07T03:34:06;2.60;99.90
19242;DHT22;9755;47.790;9.620;2022-12-07T03:36:39;2.60;99.90
19242;DHT22;9755;47.790;9.620;2022-12-07T03:39:16;2.50;99.90
19242;DHT22;9755;47.790;9.620;2022-12-07T03:41:44;2.50;99.90
19242;DHT22;9755;47.790;9.620;2022-12-07T03:44:12;2.60;99.90
19242;DHT22;9755;47.790;9.620;2022-12-07T03:46:45;2.60;99.90
19242;DHT22;9755;47.790;9.620;2022-12-07T03:49:21;2.50;99.90
19242;DHT22;9755;47.790;9.620;2022-12-07T03:51:54;2.50;99.90
19242;DHT22;9755;47.790;9.620;2022-12-07T03:54:26;2.50;99.90
19242;DHT22;9755;47.790;9.620;2022-12-07T03:56:56;2.50;99.90
19242;DHT22;9755;47.790;9.620;2022-12-07T03:59:25;2.50;99.90
19242;DHT22;9755;47.790;9.620;2022-12-07T04:01:57;2.50;99.90
19242;DHT22;9755;47.790;9.620;2022-12-07T04:04:24;2.40;99.90
19242;DHT22;9755;47.790;9.620;2022-12-07T04:06:51;2.40;99.90
19242;DHT22;9755;47.790;9.620;2022-12-07T04:09:18;2.50;99.90
19242;DHT22;9755;47.790;9.620;2022-12-07T04:11:46;2.50;99.90
19242;DHT22;9755;47.790;9.620;2022-12-07T04:14:13;2.50;99.90
19242;DHT22;9755;47.790;9.620;2022-12-07T04:16:46;2.50;99.90
19242;DHT22;9755;47.790;9.620;2022-12-07T04:19:15;2.50;99.90
19242;DHT22;9755;47.790;9.620;2022-12-07T04:21:42;2.50;99.90
19242;DHT22;9755;47.790;9.620;2022-12-07T04:24:09;2.50;99.90
19242;DHT22;9755;47.790;9.620;2022-12-07T04:26:36;2.50;99.90
19242;DHT22;9755;47.790;9.620;2022-12-07T04:29:03;2.50;99.90
19242;DHT22;9755;47.790;9.620;2022-12-07T04:31:30;2.50;99.90
19242;DHT22;9755;47.790;9.620;2022-12-07T04:33:57;2.50;99.90
19242;DHT22;9755;47.790;9.620;2022-12-07T04:36:26;2.50;99.90
19242;DHT22;9755;47.790;9.620;2022-12-07T04:38:53;2.50;99.90
19242;DHT22;9755;47.790;9.620;2022-12-07T04:41:22;2.40;99.90
19242;DHT22;9755;47.790;9.620;2022-12-07T04:43:53;2.40;99.90
19242;DHT22;9755;47.790;9.620;2022-12-07T04:46:21;2.40;99.90
19242;DHT22;9755;47.790;9.620;2022-12-07T04:48:48;2.40;99.90
19242;DHT22;9755;47.790;9.620;2022-12-07T04:51:18;2.40;99.90
19242;DHT22;9755;47.790;9.620;2022-12-07T04:53:47;2.40;99.90
19242;DHT22;9755;47.790;9.620;2022-12-07T04:56:15;2.30;99.90
19242;DHT22;9755;47.790;9.620;2022-12-07T04:58:43;2.30;99.90
19242;DHT22;9755;47.790;9.620;2022-12-07T05:01:10;2.30;99.90
19242;DHT22;9755;47.790;9.620;2022-12-07T05:03:38;2.30;99.90
19242;DHT22;9755;47.790;9.620;2022-12-07T05:06:05;2.40;99.90
19242;DHT22;9755;47.790;9.620;2022-12-07T05:08:33;2.40;99.90
19242;DHT22;9755;47.790;9.620;2022-12-07T05:11:02;2.40;99.90
19242;DHT22;9755;47.790;9.620;2022-12-07T05:13:31;2.50;99.90
19242;DHT22;9755;47.790;9.620;2022-12-07T05:15:58;2.40;99.90
19242;DHT22;9755;47.790;9.620;2022-12-07T05:18:26;2.40;99.90
19242;DHT22;9755;47.790;9.620;2022-12-07T05:20:53;2.40;99.90
19242;DHT22;9755;47.790;9.620;2022-12-07T05:23:20;2.40;99.90
19242;DHT22;9755;47.790;9.620;2022-12-07T05:25:47;2.30;99.90
19242;DHT22;9755;47.790;9.620;2022-12-07T05:28:15;2.40;99.90
19242;DHT22;9755;47.790;9.620;2022-12-07T05:30:42;2.40;99.90
19242;DHT22;9755;47.790;9.620;2022-12-07T05:33:09;2.40;99.90
19242;DHT22;9755;47.790;9.620;2022-12-07T05:35:36;2.40;99.90
19242;DHT22;9755;47.790;9.620;2022-12-07T05:38:04;2.40;99.90
19242;DHT22;9755;47.790;9.620;2022-12-07T05:40:31;2.30;99.90
19242;DHT22;9755;47.790;9.620;2022-12-07T05:42:58;2.40;99.90
19242;DHT22;9755;47.790;9.620;2022-12-07T05:45:26;2.40;99.90
19242;DHT22;9755;47.790;9.620;2022-12-07T05:47:53;2.30;99.90
19242;DHT22;9755;47.790;9.620;2022-12-07T05:50:20;2.30;99.90
19242;DHT22;9755;47.790;9.620;2022-12-07T05:52:47;2.30;99.90
19242;DHT22;9755;47.790;9.620;2022-12-07T05:55:15;2.30;99.90
19242;DHT22;9755;47.790;9.620;2022-12-07T05:57:42;2.30;99.90
19242;DHT22;9755;47.790;9.620;2022-12-07T06:00:31;2.30;99.90
19242;DHT22;9755;47.790;9.620;2022-12-07T06:02:57;2.20;99.90
19242;DHT22;9755;47.790;9.620;2022-12-07T06:05:24;2.20;99.90
19242;DHT22;9755;47.790;9.620;2022-12-07T06:07:51;2.20;99.90
19242;DHT22;9755;47.790;9.620;2022-12-07T06:10:18;2.20;99.90
19242;DHT22;9755;47.790;9.620;2022-12-07T06:12:45;2.20;99.90
19242;DHT22;9755;47.790;9.620;2022-12-07T06:15:12;2.20;99.90
19242;DHT22;9755;47.790;9.620;2022-12-07T06:17:41;2.20;99.90
19242;DHT22;9755;47.790;9.620;2022-12-07T06:20:08;2.10;99.90
19242;DHT22;9755;47.790;9.620;2022-12-07T06:22:35;2.10;99.90
19242;DHT22;9755;47.790;9.620;2022-12-07T06:25:03;2.10;99.90
19242;DHT22;9755;47.790;9.620;2022-12-07T06:27:30;2.10;99.90
19242;DHT22;9755;47.790;9.620;2022-12-07T06:29:58;2.10;99.90
19242;DHT22;9755;47.790;9.620;2022-12-07T06:32:31;2.10;99.90
19242;DHT22;9755;47.790;9.620;2022-12-07T06:34:59;2.10;99.90
19242;DHT22;9755;47.790;9.620;2022-12-07T06:37:26;2.10;99.90
19242;DHT22;9755;47.790;9.620;2022-12-07T06:39:53;2.10;99.90
19242;DHT22;9755;47.790;9.620;2022-12-07T06:42:20;2.10;99.90
19242;DHT22;9755;47.790;9.620;2022-12-07T06:44:47;2.00;99.90
19242;DHT22;9755;47.790;9.620;2022-12-07T06:47:14;2.10;99.90
19242;DHT22;9755;47.790;9.620;2022-12-07T06:49:41;2.10;99.90
19242;DHT22;9755;47.790;9.620;2022-12-07T06:52:10;2.10;99.90
19242;DHT22;9755;47.790;9.620;2022-12-07T06:54:37;2.00;99.90
19242;DHT22;9755;47.790;9.620;2022-12-07T06:57:04;2.10;99.90
19242;DHT22;9755;47.790;9.620;2022-12-07T06:59:31;2.00;99.90
19242;DHT22;9755;47.790;9.620;2022-12-07T07:01:58;2.00;99.90
19242;DHT22;9755;47.790;9.620;2022-12-07T07:04:25;2.00;99.90
19242;DHT22;9755;47.790;9.620;2022-12-07T07:06:52;2.00;99.90
19242;DHT22;9755;47.790;9.620;2022-12-07T07:09:20;2.00;99.90
19242;DHT22;9755;47.790;9.620;2022-12-07T07:11:47;2.00;99.90
19242;DHT22;9755;47.790;9.620;2022-12-07T07:14:15;2.00;99.90
19242;DHT22;9755;47.790;9.620;2022-12-07T07:16:44;2.00;99.90
19242;DHT22;9755;47.790;9.620;2022-12-07T07:19:11;2.00;99.90
19242;DHT22;9755;47.790;9.620;2022-12-07T07:21:38;2.00;99.90
19242;DHT22;9755;47.790;9.620;2022-12-07T07:24:06;2.10;99.90
19242;DHT22;9755;47.790;9.620;2022-12-07T07:26:35;2.10;99.90
19242;DHT22;9755;47.790;9.620;2022-12-07T07:29:02;2.10;99.90
19242;DHT22;9755;47.790;9.620;2022-12-07T07:31:29;2.10;99.90
19242;DHT22;9755;47.790;9.620;2022-12-07T07:33:56;2.10;99.90
19242;DHT22;9755;47.790;9.620;2022-12-07T07:36:23;2.10;99.90
19242;DHT22;9755;47.790;9.620;2022-12-07T07:38:50;2.10;99.90
19242;DHT22;9755;47.790;9.620;2022-12-07T07:41:17;2.20;99.90
19242;DHT22;9755;47.790;9.620;2022-12-07T07:43:45;2.20;99.90
19242;DHT22;9755;47.790;9.620;2022-12-07T07:46:12;2.20;99.90
19242;DHT22;9755;47.790;9.620;2022-12-07T07:48:39;2.20;99.90
19242;DHT22;9755;47.790;9.620;2022-12-07T07:51:07;2.20;99.90
19242;DHT22;9755;47.790;9.620;2022-12-07T07:53:34;2.20;99.90
19242;DHT22;9755;47.790;9.620;2022-12-07T07:56:01;2.20;99.90
19242;DHT22;9755;47.790;9.620;2022-12-07T07:58:28;2.20;99.90
19242;DHT22;9755;47.790;9.620;2022-12-07T08:00:57;2.20;99.90
19242;DHT22;9755;47.790;9.620;2022-12-07T08:03:29;2.20;99.90
19242;DHT22;9755;47.790;9.620;2022-12-07T08:05:57;2.20;99.90
19242;DHT22;9755;47.790;9.620;2022-12-07T08:08:24;2.20;99.90
19242;DHT22;9755;47.790;9.620;2022-12-07T08:10:51;2.20;99.90
19242;DHT22;9755;47.790;9.620;2022-12-07T08:13:18;2.30;99.90
19242;DHT22;9755;47.790;9.620;2022-12-07T08:15:46;2.30;99.90
19242;DHT22;9755;47.790;9.620;2022-12-07T08:18:15;2.30;99.90
19242;DHT22;9755;47.790;9.620;2022-12-07T08:20:42;2.30;99.90
19242;DHT22;9755;47.790;9.620;2022-12-07T08:23:10;2.40;99.90
19242;DHT22;9755;47.790;9.620;2022-12-07T08:25:37;2.40;99.90
19242;DHT22;9755;47.790;9.620;2022-12-07T08:28:05;2.40;99.90
19242;DHT22;9755;47.790;9.620;2022-12-07T08:30:32;2.50;99.90
19242;DHT22;9755;47.790;9.620;2022-12-07T08:32:59;2.50;99.90
19242;DHT22;9755;47.790;9.620;2022-12-07T08:35:27;2.60;99.90
19242;DHT22;9755;47.790;9.620;2022-12-07T08:37:54;2.60;99.90
19242;DHT22;9755;47.790;9.620;2022-12-07T08:40:23;2.60;99.90
19242;DHT22;9755;47.790;9.620;2022-12-07T08:42:50;2.70;99.90
19242;DHT22;9755;47.790;9.620;2022-12-07T08:45:19;2.70;99.90
19242;DHT22;9755;47.790;9.620;2022-12-07T08:47:52;2.70;99.90
19242;DHT22;9755;47.790;9.620;2022-12-07T08:50:22;2.70;99.90
19242;DHT22;9755;47.790;9.620;2022-12-07T08:52:54;2.80;99.90
19242;DHT22;9755;47.790;9.620;2022-12-07T08:55:21;2.70;99.90
19242;DHT22;9755;47.790;9.620;2022-12-07T08:57:49;2.70;99.90
19242;DHT22;9755;47.790;9.620;2022-12-07T09:00:17;2.80;99.90
19242;DHT22;9755;47.790;9.620;2022-12-07T09:02:45;2.80;99.90
19242;DHT22;9755;47.790;9.620;2022-12-07T09:05:12;2.90;99.90
19242;DHT22;9755;47.790;9.620;2022-12-07T09:07:41;2.90;99.90
19242;DHT22;9755;47.790;9.620;2022-12-07T09:10:11;2.90;99.90
19242;DHT22;9755;47.790;9.620;2022-12-07T09:12:38;2.90;99.90
19242;DHT22;9755;47.790;9.620;2022-12-07T09:15:05;2.90;99.90
19242;DHT22;9755;47.790;9.620;2022-12-07T09:17:33;3.00;99.90
19242;DHT22;9755;47.790;9.620;2022-12-07T09:20:01;3.00;99.90
19242;DHT22;9755;47.790;9.620;2022-12-07T09:22:29;3.00;99.90
19242;DHT22;9755;47.790;9.620;2022-12-07T09:24:56;3.10;99.90
19242;DHT22;9755;47.790;9.620;2022-12-07T09:27:25;3.10;99.90
19242;DHT22;9755;47.790;9.620;2022-12-07T09:29:52;3.20;99.90
19242;DHT22;9755;47.790;9.620;2022-12-07T09:32:19;3.20;99.90
19242;DHT22;9755;47.790;9.620;2022-12-07T09:34:46;3.20;99.90
19242;DHT22;9755;47.790;9.620;2022-12-07T09:37:14;3.30;99.90
19242;DHT22;9755;47.790;9.620;2022-12-07T09:39:41;3.30;99.90
19242;DHT22;9755;47.790;9.620;2022-12-07T09:42:08;3.40;99.90
19242;DHT22;9755;47.790;9.620;2022-12-07T09:44:41;3.40;99.90
19242;DHT22;9755;47.790;9.620;2022-12-07T09:47:09;3.50;99.90
19242;DHT22;9755;47.790;9.620;2022-12-07T09:49:37;3.60;99.90
19242;DHT22;9755;47.790;9.620;2022-12-07T09:52:18;3.70;99.90
19242;DHT22;9755;47.790;9.620;2022-12-07T09:54:47;3.80;99.90
19242;DHT22;9755;47.790;9.620;2022-12-07T09:57:15;3.90;99.90
19242;DHT22;9755;47.790;9.620;2022-12-07T09:59:43;4.00;99.90
19242;DHT22;9755;47.790;9.620;2022-12-07T10:02:32;4.00;99.90
19242;DHT22;9755;47.790;9.620;2022-12-07T10:05:01;4.20;99.90
19242;DHT22;9755;47.790;9.620;2022-12-07T10:07:30;4.40;99.90
19242;DHT22;9755;47.790;9.620;2022-12-07T10:09:57;4.40;99.90
19242;DHT22;9755;47.790;9.620;2022-12-07T10:12:24;4.40;99.90
19242;DHT22;9755;47.790;9.620;2022-12-07T10:14:59;4.50;99.90
19242;DHT22;9755;47.790;9.620;2022-12-07T10:17:34;4.60;99.90
19242;DHT22;9755;47.790;9.620;2022-12-07T10:20:16;4.50;71.70
19242;DHT22;9755;47.790;9.620;2022-12-07T10:22:59;4.60;1.00
19242;DHT22;9755;47.790;9.620;2022-12-07T10:25:28;4.70;1.00
19242;DHT22;9755;47.790;9.620;2022-12-07T10:27:58;4.70;99.90
19242;DHT22;9755;47.790;9.620;2022-12-07T10:30:27;5.00;68.30
19242;DHT22;9755;47.790;9.620;2022-12-07T10:32:55;4.90;92.90
19242;DHT22;9755;47.790;9.620;2022-12-07T10:35:25;5.20;1.00
19242;DHT22;9755;47.790;9.620;2022-12-07T10:37:55;5.40;1.00
19242;DHT22;9755;47.790;9.620;2022-12-07T10:40:30;5.30;1.00
19242;DHT22;9755;47.790;9.620;2022-12-07T10:43:17;5.30;99.90
19242;DHT22;9755;47.790;9.620;2022-12-07T10:46:04;5.30;1.00
19242;DHT22;9755;47.790;9.620;2022-12-07T10:48:38;5.20;1.00
19242;DHT22;9755;47.790;9.620;2022-12-07T10:51:12;5.00;1.00
19242;DHT22;9755;47.790;9.620;2022-12-07T10:53:50;5.00;99.90
19242;DHT22;9755;47.790;9.620;2022-12-07T10:56:33;4.80;1.00
19242;DHT22;9755;47.790;9.620;2022-12-07T10:59:20;4.70;1.00
19242;DHT22;9755;47.790;9.620;2022-12-07T11:01:54;4.60;1.00
19242;DHT22;9755;47.790;9.620;2022-12-07T11:04:31;4.50;99.90
19242;DHT22;9755;47.790;9.620;2022-12-07T11:07:05;4.50;99.90
19242;DHT22;9755;47.790;9.620;2022-12-07T11:09:49;4.50;99.90
19242;DHT22;9755;47.790;9.620;2022-12-07T11:12:28;4.50;1.00
19242;DHT22;9755;47.790;9.620;2022-12-07T11:15:02;4.50;1.00
19242;DHT22;9755;47.790;9.620;2022-12-07T11:17:40;4.60;1.00
19242;DHT22;9755;47.790;9.620;2022-12-07T11:20:20;4.60;99.90
19242;DHT22;9755;47.790;9.620;2022-12-07T11:22:54;4.60;99.90
19242;DHT22;9755;47.790;9.620;2022-12-07T11:25:27;4.60;99.90
19242;DHT22;9755;47.790;9.620;2022-12-07T11:28:07;4.40;1.00
19242;DHT22;9755;47.790;9.620;2022-12-07T11:34:02;4.30;99.90
19242;DHT22;9755;47.790;9.620;2022-12-07T11:36:38;4.30;1.00
19242;DHT22;9755;47.790;9.620;2022-12-07T11:39:14;4.40;99.90
19242;DHT22;9755;47.790;9.620;2022-12-07T11:41:43;4.40;99.90
19242;DHT22;9755;47.790;9.620;2022-12-07T11:44:20;4.40;1.00
19242;DHT22;9755;47.790;9.620;2022-12-07T11:46:56;4.30;1.00
19242;DHT22;9755;47.790;9.620;2022-12-07T11:49:35;4.40;1.00
19242;DHT22;9755;47.790;9.620;2022-12-07T11:52:06;4.50;1.00
19242;DHT22;9755;47.790;9.620;2022-12-07T11:54:40;4.50;1.00
19242;DHT22;9755;47.790;9.620;2022-12-07T11:57:15;4.50;99.90
19242;DHT22;9755;47.790;9.620;2022-12-07T11:59:48;4.30;99.90
19242;DHT22;9755;47.790;9.620;2022-12-07T12:02:20;4.40;99.90
19242;DHT22;9755;47.790;9.620;2022-12-07T12:04:55;4.30;99.90
19242;DHT22;9755;47.790;9.620;2022-12-07T12:07:26;4.30;1.00
19242;DHT22;9755;47.790;9.620;2022-12-07T12:09:55;4.30;99.90
19242;DHT22;9755;47.790;9.620;2022-12-07T12:12:45;4.30;99.90
19242;DHT22;9755;47.790;9.620;2022-12-07T12:15:28;4.40;1.00
19242;DHT22;9755;47.790;9.620;2022-12-07T12:18:12;4.40;99.90
19242;DHT22;9755;47.790;9.620;2022-12-07T12:20:47;4.40;1.00
19242;DHT22;9755;47.790;9.620;2022-12-07T12:23:18;4.40;1.00
19242;DHT22;9755;47.790;9.620;2022-12-07T12:25:48;4.30;1.00
19242;DHT22;9755;47.790;9.620;2022-12-07T12:28:23;4.40;72.20
19242;DHT22;9755;47.790;9.620;2022-12-07T12:31:13;4.50;1.00
19242;DHT22;9755;47.790;9.620;2022-12-07T12:33:44;4.60;1.00
19242;DHT22;9755;47.790;9.620;2022-12-07T12:36:26;4.60;1.00
19242;DHT22;9755;47.790;9.620;2022-12-07T12:39:10;4.50;1.00
19242;DHT22;9755;47.790;9.620;2022-12-07T12:41:55;4.40;99.90
19242;DHT22;9755;47.790;9.620;2022-12-07T12:45:18;4.30;99.90
19242;DHT22;9755;47.790;9.620;2022-12-07T12:47:53;4.20;1.00
19242;DHT22;9755;47.790;9.620;2022-12-07T12:50:26;4.30;1.00
19242;DHT22;9755;47.790;9.620;2022-12-07T12:53:14;4.30;99.90
19242;DHT22;9755;47.790;9.620;2022-12-07T12:56:21;4.40;1.00
19242;DHT22;9755;47.790;9.620;2022-12-07T12:59:23;4.40;1.00
19242;DHT22;9755;47.790;9.620;2022-12-07T13:01:51;4.30;99.90
19242;DHT22;9755;47.790;9.620;2022-12-07T13:04:49;4.40;99.90
19242;DHT22;9755;47.790;9.620;2022-12-07T13:10:40;4.30;1.00
19242;DHT22;9755;47.790;9.620;2022-12-07T13:13:31;4.30;1.00
19242;DHT22;9755;47.790;9.620;2022-12-07T13:16:36;4.30;1.00
19242;DHT22;9755;47.790;9.620;2022-12-07T13:22:50;4.20;99.90
19242;DHT22;9755;47.790;9.620;2022-12-07T13:25:23;4.20;99.90
19242;DHT22;9755;47.790;9.620;2022-12-07T13:27:59;4.20;1.00
19242;DHT22;9755;47.790;9.620;2022-12-07T13:30:28;4.20;1.00
19242;DHT22;9755;47.790;9.620;2022-12-07T13:32:58;4.10;1.00
19242;DHT22;9755;47.790;9.620;2022-12-07T13:35:30;4.10;1.00
19242;DHT22;9755;47.790;9.620;2022-12-07T13:37:57;4.10;1.00
19242;DHT22;9755;47.790;9.620;2022-12-07T13:40:25;4.10;1.00
19242;DHT22;9755;47.790;9.620;2022-12-07T13:42:59;4.10;99.90
19242;DHT22;9755;47.790;9.620;2022-12-07T13:45:28;4.10;99.90
19242;DHT22;9755;47.790;9.620;2022-12-07T13:48:14;4.10;99.90
19242;DHT22;9755;47.790;9.620;2022-12-07T13:50:42;4.10;99.90
19242;DHT22;9755;47.790;9.620;2022-12-07T13:53:12;4.10;99.90
19242;DHT22;9755;47.790;9.620;2022-12-07T13:55:45;4.10;99.90
19242;DHT22;9755;47.790;9.620;2022-12-07T13:58:14;4.10;99.90
19242;DHT22;9755;47.790;9.620;2022-12-07T14:00:42;4.10;1.00
19242;DHT22;9755;47.790;9.620;2022-12-07T14:03:31;4.00;1.00
19242;DHT22;9755;47.790;9.620;2022-12-07T14:06:10;4.00;1.00
19242;DHT22;9755;47.790;9.620;2022-12-07T14:08:39;3.80;1.00
19242;DHT22;9755;47.790;9.620;2022-12-07T14:11:08;3.90;99.90
19242;DHT22;9755;47.790;9.620;2022-12-07T14:13:39;3.80;99.90
19242;DHT22;9755;47.790;9.620;2022-12-07T14:16:22;3.90;99.90
19242;DHT22;9755;47.790;9.620;2022-12-07T14:18:49;3.80;99.90
19242;DHT22;9755;47.790;9.620;2022-12-07T14:21:18;3.90;1.00
19242;DHT22;9755;47.790;9.620;2022-12-07T14:24:09;3.90;1.00
19242;DHT22;9755;47.790;9.620;2022-12-07T14:26:37;3.90;1.00
19242;DHT22;9755;47.790;9.620;2022-12-07T14:29:37;3.90;1.00
19242;DHT22;9755;47.790;9.620;2022-12-07T14:32:21;3.80;1.00
19242;DHT22;9755;47.790;9.620;2022-12-07T14:34:54;3.80;1.00
19242;DHT22;9755;47.790;9.620;2022-12-07T14:37:21;3.80;1.00
19242;DHT22;9755;47.790;9.620;2022-12-07T14:39:48;3.80;1.00
19242;DHT22;9755;47.790;9.620;2022-12-07T14:42:15;3.80;99.90
19242;DHT22;9755;47.790;9.620;2022-12-07T14:44:44;3.70;9.80
19242;DHT22;9755;47.790;9.620;2022-12-07T14:47:11;3.60;99.90
19242;DHT22;9755;47.790;9.620;2022-12-07T14:49:38;3.60;1.00
19242;DHT22;9755;47.790;9.620;2022-12-07T14:52:08;3.40;1.00
19242;DHT22;9755;47.790;9.620;2022-12-07T14:54:38;3.40;99.90
19242;DHT22;9755;47.790;9.620;2022-12-07T14:57:06;3.30;99.90
19242;DHT22;9755;47.790;9.620;2022-12-07T14:59:34;3.30;99.90
19242;DHT22;9755;47.790;9.620;2022-12-07T15:02:02;3.30;99.90
19242;DHT22;9755;47.790;9.620;2022-12-07T15:04:30;3.20;1.00
19242;DHT22;9755;47.790;9.620;2022-12-07T15:06:57;3.20;1.00
19242;DHT22;9755;47.790;9.620;2022-12-07T15:09:25;3.20;15.30
19242;DHT22;9755;47.790;9.620;2022-12-07T15:11:52;3.20;1.00
19242;DHT22;9755;47.790;9.620;2022-12-07T15:14:19;3.10;1.00
19242;DHT22;9755;47.790;9.620;2022-12-07T15:16:46;3.10;1.00
19242;DHT22;9755;47.790;9.620;2022-12-07T15:19:16;3.10;1.00
19242;DHT22;9755;47.790;9.620;2022-12-07T15:21:43;3.10;99.90
19242;DHT22;9755;47.790;9.620;2022-12-07T15:24:11;3.10;99.90
19242;DHT22;9755;47.790;9.620;2022-12-07T15:26:39;3.10;1.00
19242;DHT22;9755;47.790;9.620;2022-12-07T15:29:07;3.10;1.00
19242;DHT22;9755;47.790;9.620;2022-12-07T15:31:35;3.00;1.00
19242;DHT22;9755;47.790;9.620;2022-12-07T15:34:03;2.90;1.00
19242;DHT22;9755;47.790;9.620;2022-12-07T15:36:33;2.90;1.00
19242;DHT22;9755;47.790;9.620;2022-12-07T15:39:00;2.90;99.90
19242;DHT22;9755;47.790;9.620;2022-12-07T15:41:27;2.80;1.00
19242;DHT22;9755;47.790;9.620;2022-12-07T15:43:54;2.80;1.00
19242;DHT22;9755;47.790;9.620;2022-12-07T15:46:40;2.70;99.90
19242;DHT22;9755;47.790;9.620;2022-12-07T15:49:11;2.70;1.00
19242;DHT22;9755;47.790;9.620;2022-12-07T15:51:40;2.70;1.00
19242;DHT22;9755;47.790;9.620;2022-12-07T15:54:11;2.70;1.00
19242;DHT22;9755;47.790;9.620;2022-12-07T15:56:38;2.60;1.00
19242;DHT22;9755;47.790;9.620;2022-12-07T15:59:05;2.50;24.80
19242;DHT22;9755;47.790;9.620;2022-12-07T16:01:32;2.40;99.90
19242;DHT22;9755;47.790;9.620;2022-12-07T16:03:59;2.40;1.00
19242;DHT22;9755;47.790;9.620;2022-12-07T16:06:26;2.40;1.00
19242;DHT22;9755;47.790;9.620;2022-12-07T16:08:55;2.40;1.00
19242;DHT22;9755;47.790;9.620;2022-12-07T16:11:22;2.30;99.90
19242;DHT22;9755;47.790;9.620;2022-12-07T16:13:49;2.30;99.90
19242;DHT22;9755;47.790;9.620;2022-12-07T16:16:18;2.30;99.90
19242;DHT22;9755;47.790;9.620;2022-12-07T16:18:46;2.30;99.90
19242;DHT22;9755;47.790;9.620;2022-12-07T16:21:14;2.30;99.90
19242;DHT22;9755;47.790;9.620;2022-12-07T16:23:41;2.20;1.00
19242;DHT22;9755;47.790;9.620;2022-12-07T16:26:12;2.20;1.00
19242;DHT22;9755;47.790;9.620;2022-12-07T16:28:40;2.20;1.00
19242;DHT22;9755;47.790;9.620;2022-12-07T16:31:09;2.20;1.00
19242;DHT22;9755;47.790;9.620;2022-12-07T16:33:37;2.30;1.00
19242;DHT22;9755;47.790;9.620;2022-12-07T16:36:06;2.20;63.80
19242;DHT22;9755;47.790;9.620;2022-12-07T16:38:34;2.20;99.90
19242;DHT22;9755;47.790;9.620;2022-12-07T16:41:03;2.10;99.90